sensor_id;sensor_type;location;lat;lon;timestamp;P1;durP1;ratioP1;P2;durP2;ratioP2
72941;SDS011;69665;55.822;37.330;2024-02-26T00:01:37;7.63;;;2.50;;
72941;SDS011;69665;55.822;37.330;2024-02-26T00:04:03;7.65;;;2.75;;
72941;SDS011;69665;55.822;37.330;2024-02-26T00:06:29;6.75;;;2.30;;
72941;SDS011;69665;55.822;37.330;2024-02-26T00:08:55;7.63;;;2.53;;
72941;SDS011;69665;55.822;37.330;2024-02-26T00:11:21;6.30;;;2.35;;
72941;SDS011;69665;55.822;37.330;2024-02-26T00:13:46;7.25;;;2.53;;
72941;SDS011;69665;55.822;37.330;2024-02-26T00:16:12;6.00;;;2.20;;
72941;SDS011;69665;55.822;37.330;2024-02-26T00:18:37;6.95;;;2.13;;
72941;SDS011;69665;55.822;37.330;2024-02-26T00:21:03;5.82;;;2.38;;
72941;SDS011;69665;55.822;37.330;2024-02-26T00:23:29;4.78;;;1.90;;
72941;SDS011;69665;55.822;37.330;2024-02-26T00:25:54;5.25;;;2.05;;
72941;SDS011;69665;55.822;37.330;2024-02-26T00:28:20;7.45;;;2.35;;
72941;SDS011;69665;55.822;37.330;2024-02-26T00:30:46;6.65;;;2.15;;
72941;SDS011;69665;55.822;37.330;2024-02-26T00:33:12;11.55;;;2.38;;
72941;SDS011;69665;55.822;37.330;2024-02-26T00:35:40;5.25;;;2.17;;
72941;SDS011;69665;55.822;37.330;2024-02-26T00:38:06;4.45;;;1.90;;
72941;SDS011;69665;55.822;37.330;2024-02-26T00:40:31;5.20;;;2.05;;
72941;SDS011;69665;55.822;37.330;2024-02-26T00:42:57;6.53;;;2.15;;
72941;SDS011;69665;55.822;37.330;2024-02-26T00:45:22;5.38;;;1.83;;
72941;SDS011;69665;55.822;37.330;2024-02-26T00:47:48;7.18;;;2.22;;
72941;SDS011;69665;55.822;37.330;2024-02-26T00:50:14;4.53;;;1.45;;
72941;SDS011;69665;55.822;37.330;2024-02-26T00:52:40;5.45;;;2.10;;
72941;SDS011;69665;55.822;37.330;2024-02-26T00:55:06;9.82;;;2.22;;
72941;SDS011;69665;55.822;37.330;2024-02-26T00:57:32;6.90;;;2.50;;
72941;SDS011;69665;55.822;37.330;2024-02-26T00:59:57;9.90;;;2.50;;
72941;SDS011;69665;55.822;37.330;2024-02-26T01:02:24;10.43;;;1.90;;
72941;SDS011;69665;55.822;37.330;2024-02-26T01:04:50;5.13;;;1.55;;
72941;SDS011;69665;55.822;37.330;2024-02-26T01:07:15;7.22;;;2.45;;
72941;SDS011;69665;55.822;37.330;2024-02-26T01:09:42;6.32;;;2.15;;
72941;SDS011;69665;55.822;37.330;2024-02-26T01:12:08;4.75;;;1.65;;
72941;SDS011;69665;55.822;37.330;2024-02-26T01:14:34;8.13;;;2.33;;
72941;SDS011;69665;55.822;37.330;2024-02-26T01:16:59;3.33;;;1.63;;
72941;SDS011;69665;55.822;37.330;2024-02-26T01:19:25;6.97;;;1.98;;
72941;SDS011;69665;55.822;37.330;2024-02-26T01:21:51;8.95;;;2.22;;
72941;SDS011;69665;55.822;37.330;2024-02-26T01:24:16;4.38;;;1.35;;
72941;SDS011;69665;55.822;37.330;2024-02-26T01:26:42;8.07;;;1.95;;
72941;SDS011;69665;55.822;37.330;2024-02-26T01:29:08;6.18;;;2.17;;
72941;SDS011;69665;55.822;37.330;2024-02-26T01:31:34;6.90;;;2.30;;
72941;SDS011;69665;55.822;37.330;2024-02-26T01:34:00;6.80;;;2.28;;
72941;SDS011;69665;55.822;37.330;2024-02-26T01:36:26;6.55;;;2.25;;
72941;SDS011;69665;55.822;37.330;2024-02-26T01:38:51;6.70;;;1.88;;
72941;SDS011;69665;55.822;37.330;2024-02-26T01:41:17;4.50;;;1.42;;
72941;SDS011;69665;55.822;37.330;2024-02-26T01:43:42;7.88;;;2.65;;
72941;SDS011;69665;55.822;37.330;2024-02-26T01:46:12;9.73;;;2.00;;
72941;SDS011;69665;55.822;37.330;2024-02-26T01:48:42;4.40;;;1.70;;
72941;SDS011;69665;55.822;37.330;2024-02-26T01:53:36;5.55;;;1.83;;
72941;SDS011;69665;55.822;37.330;2024-02-26T01:56:01;7.47;;;1.77;;
72941;SDS011;69665;55.822;37.330;2024-02-26T01:58:28;5.18;;;1.55;;
72941;SDS011;69665;55.822;37.330;2024-02-26T02:00:55;5.05;;;1.77;;
72941;SDS011;69665;55.822;37.330;2024-02-26T02:03:22;7.22;;;2.15;;
72941;SDS011;69665;55.822;37.330;2024-02-26T02:05:48;6.45;;;1.80;;
72941;SDS011;69665;55.822;37.330;2024-02-26T02:08:14;6.50;;;1.65;;
72941;SDS011;69665;55.822;37.330;2024-02-26T02:10:40;4.18;;;1.65;;
72941;SDS011;69665;55.822;37.330;2024-02-26T02:13:07;5.20;;;1.73;;
72941;SDS011;69665;55.822;37.330;2024-02-26T02:15:34;6.93;;;2.28;;
72941;SDS011;69665;55.822;37.330;2024-02-26T02:17:59;5.47;;;1.85;;
72941;SDS011;69665;55.822;37.330;2024-02-26T02:20:32;3.85;;;1.38;;
72941;SDS011;69665;55.822;37.330;2024-02-26T02:22:59;6.90;;;1.55;;
72941;SDS011;69665;55.822;37.330;2024-02-26T02:25:24;6.90;;;1.90;;
72941;SDS011;69665;55.822;37.330;2024-02-26T02:27:50;4.65;;;1.63;;
72941;SDS011;69665;55.822;37.330;2024-02-26T02:30:17;5.60;;;1.85;;
72941;SDS011;69665;55.822;37.330;2024-02-26T02:32:42;8.40;;;1.65;;
72941;SDS011;69665;55.822;37.330;2024-02-26T02:35:09;5.82;;;1.52;;
72941;SDS011;69665;55.822;37.330;2024-02-26T02:37:34;5.05;;;1.75;;
72941;SDS011;69665;55.822;37.330;2024-02-26T02:40:00;8.98;;;2.22;;
72941;SDS011;69665;55.822;37.330;2024-02-26T02:42:26;6.32;;;1.85;;
72941;SDS011;69665;55.822;37.330;2024-02-26T02:44:51;5.18;;;2.17;;
72941;SDS011;69665;55.822;37.330;2024-02-26T02:47:17;3.33;;;1.27;;
72941;SDS011;69665;55.822;37.330;2024-02-26T02:49:42;8.73;;;2.15;;
72941;SDS011;69665;55.822;37.330;2024-02-26T02:52:08;4.82;;;1.35;;
72941;SDS011;69665;55.822;37.330;2024-02-26T02:54:34;6.25;;;1.70;;
72941;SDS011;69665;55.822;37.330;2024-02-26T02:56:59;3.78;;;1.20;;
72941;SDS011;69665;55.822;37.330;2024-02-26T02:59:25;5.85;;;1.40;;
72941;SDS011;69665;55.822;37.330;2024-02-26T03:01:50;5.03;;;1.42;;
72941;SDS011;69665;55.822;37.330;2024-02-26T03:04:17;6.05;;;1.98;;
72941;SDS011;69665;55.822;37.330;2024-02-26T03:06:42;4.18;;;1.63;;
72941;SDS011;69665;55.822;37.330;2024-02-26T03:09:08;4.45;;;1.52;;
72941;SDS011;69665;55.822;37.330;2024-02-26T03:11:33;5.55;;;1.83;;
72941;SDS011;69665;55.822;37.330;2024-02-26T03:13:59;9.73;;;1.90;;
72941;SDS011;69665;55.822;37.330;2024-02-26T03:16:25;6.00;;;1.67;;
72941;SDS011;69665;55.822;37.330;2024-02-26T03:18:50;6.22;;;1.60;;
72941;SDS011;69665;55.822;37.330;2024-02-26T03:21:16;5.88;;;1.60;;
72941;SDS011;69665;55.822;37.330;2024-02-26T03:23:41;4.88;;;1.90;;
72941;SDS011;69665;55.822;37.330;2024-02-26T03:26:07;3.67;;;1.20;;
72941;SDS011;69665;55.822;37.330;2024-02-26T03:28:34;4.70;;;1.40;;
72941;SDS011;69665;55.822;37.330;2024-02-26T03:31:00;5.30;;;1.48;;
72941;SDS011;69665;55.822;37.330;2024-02-26T03:33:27;6.18;;;2.20;;
72941;SDS011;69665;55.822;37.330;2024-02-26T03:35:53;5.55;;;1.50;;
72941;SDS011;69665;55.822;37.330;2024-02-26T03:38:18;4.78;;;1.45;;
72941;SDS011;69665;55.822;37.330;2024-02-26T03:40:45;3.67;;;1.40;;
72941;SDS011;69665;55.822;37.330;2024-02-26T03:43:10;5.28;;;1.33;;
72941;SDS011;69665;55.822;37.330;2024-02-26T03:45:38;5.50;;;1.67;;
72941;SDS011;69665;55.822;37.330;2024-02-26T03:48:03;4.60;;;1.70;;
72941;SDS011;69665;55.822;37.330;2024-02-26T03:50:29;4.05;;;1.50;;
72941;SDS011;69665;55.822;37.330;2024-02-26T03:52:55;3.13;;;1.15;;
72941;SDS011;69665;55.822;37.330;2024-02-26T03:55:22;4.32;;;1.50;;
72941;SDS011;69665;55.822;37.330;2024-02-26T03:57:53;4.75;;;1.25;;
72941;SDS011;69665;55.822;37.330;2024-02-26T04:00:18;4.85;;;1.50;;
72941;SDS011;69665;55.822;37.330;2024-02-26T04:02:46;4.25;;;1.85;;
72941;SDS011;69665;55.822;37.330;2024-02-26T04:05:12;4.22;;;1.23;;
72941;SDS011;69665;55.822;37.330;2024-02-26T04:07:39;4.85;;;1.55;;
72941;SDS011;69665;55.822;37.330;2024-02-26T04:10:08;3.72;;;1.52;;
72941;SDS011;69665;55.822;37.330;2024-02-26T04:12:35;5.97;;;1.80;;
72941;SDS011;69665;55.822;37.330;2024-02-26T04:15:00;6.75;;;2.00;;
72941;SDS011;69665;55.822;37.330;2024-02-26T04:17:29;4.63;;;2.05;;
72941;SDS011;69665;55.822;37.330;2024-02-26T04:19:55;7.07;;;1.75;;
72941;SDS011;69665;55.822;37.330;2024-02-26T04:22:20;4.25;;;1.50;;
72941;SDS011;69665;55.822;37.330;2024-02-26T04:24:46;7.00;;;1.80;;
72941;SDS011;69665;55.822;37.330;2024-02-26T04:27:12;4.55;;;1.73;;
72941;SDS011;69665;55.822;37.330;2024-02-26T04:29:37;4.53;;;1.58;;
72941;SDS011;69665;55.822;37.330;2024-02-26T04:32:03;6.63;;;1.60;;
72941;SDS011;69665;55.822;37.330;2024-02-26T04:34:29;3.22;;;1.40;;
72941;SDS011;69665;55.822;37.330;2024-02-26T04:36:54;5.75;;;1.77;;
72941;SDS011;69665;55.822;37.330;2024-02-26T04:39:20;3.42;;;1.27;;
72941;SDS011;69665;55.822;37.330;2024-02-26T04:41:45;4.50;;;1.67;;
72941;SDS011;69665;55.822;37.330;2024-02-26T04:44:11;5.55;;;1.90;;
72941;SDS011;69665;55.822;37.330;2024-02-26T04:46:37;5.75;;;1.48;;
72941;SDS011;69665;55.822;37.330;2024-02-26T04:49:02;6.35;;;1.80;;
72941;SDS011;69665;55.822;37.330;2024-02-26T04:51:28;4.93;;;1.60;;
72941;SDS011;69665;55.822;37.330;2024-02-26T04:53:53;6.35;;;1.65;;
72941;SDS011;69665;55.822;37.330;2024-02-26T04:56:22;5.43;;;1.75;;
72941;SDS011;69665;55.822;37.330;2024-02-26T04:58:48;5.82;;;1.85;;
72941;SDS011;69665;55.822;37.330;2024-02-26T05:01:14;6.28;;;1.90;;
72941;SDS011;69665;55.822;37.330;2024-02-26T05:03:42;6.65;;;2.15;;
72941;SDS011;69665;55.822;37.330;2024-02-26T05:06:08;3.58;;;1.55;;
72941;SDS011;69665;55.822;37.330;2024-02-26T05:08:34;8.52;;;1.60;;
72941;SDS011;69665;55.822;37.330;2024-02-26T05:11:01;4.43;;;1.67;;
72941;SDS011;69665;55.822;37.330;2024-02-26T05:13:34;6.25;;;2.45;;
72941;SDS011;69665;55.822;37.330;2024-02-26T05:15:59;5.70;;;1.75;;
72941;SDS011;69665;55.822;37.330;2024-02-26T05:18:25;4.38;;;1.40;;
72941;SDS011;69665;55.822;37.330;2024-02-26T05:20:51;6.38;;;1.90;;
72941;SDS011;69665;55.822;37.330;2024-02-26T05:23:16;8.05;;;1.95;;
72941;SDS011;69665;55.822;37.330;2024-02-26T05:25:42;5.40;;;1.85;;
72941;SDS011;69665;55.822;37.330;2024-02-26T05:28:07;6.97;;;1.98;;
72941;SDS011;69665;55.822;37.330;2024-02-26T05:30:34;5.43;;;1.88;;
72941;SDS011;69665;55.822;37.330;2024-02-26T05:33:00;5.28;;;1.83;;
72941;SDS011;69665;55.822;37.330;2024-02-26T05:35:26;8.10;;;2.15;;
72941;SDS011;69665;55.822;37.330;2024-02-26T05:37:52;6.47;;;2.17;;
72941;SDS011;69665;55.822;37.330;2024-02-26T05:40:19;6.65;;;1.95;;
72941;SDS011;69665;55.822;37.330;2024-02-26T05:42:44;6.15;;;2.03;;
72941;SDS011;69665;55.822;37.330;2024-02-26T05:45:10;6.38;;;2.33;;
72941;SDS011;69665;55.822;37.330;2024-02-26T05:47:36;6.18;;;1.90;;
72941;SDS011;69665;55.822;37.330;2024-02-26T05:50:08;6.05;;;2.13;;
72941;SDS011;69665;55.822;37.330;2024-02-26T05:55:22;6.45;;;1.92;;
72941;SDS011;69665;55.822;37.330;2024-02-26T05:57:47;4.78;;;1.55;;
72941;SDS011;69665;55.822;37.330;2024-02-26T06:00:14;5.38;;;2.30;;
72941;SDS011;69665;55.822;37.330;2024-02-26T06:02:40;7.07;;;2.63;;
72941;SDS011;69665;55.822;37.330;2024-02-26T06:05:06;7.68;;;2.85;;
72941;SDS011;69665;55.822;37.330;2024-02-26T06:07:34;5.07;;;1.98;;
72941;SDS011;69665;55.822;37.330;2024-02-26T06:10:00;8.77;;;2.88;;
72941;SDS011;69665;55.822;37.330;2024-02-26T06:12:26;9.32;;;2.72;;
72941;SDS011;69665;55.822;37.330;2024-02-26T06:14:54;8.55;;;2.42;;
72941;SDS011;69665;55.822;37.330;2024-02-26T06:17:19;8.48;;;2.60;;
72941;SDS011;69665;55.822;37.330;2024-02-26T06:19:45;5.82;;;2.15;;
72941;SDS011;69665;55.822;37.330;2024-02-26T06:22:11;8.90;;;2.53;;
72941;SDS011;69665;55.822;37.330;2024-02-26T06:24:36;6.05;;;2.00;;
72941;SDS011;69665;55.822;37.330;2024-02-26T06:27:02;11.68;;;2.60;;
72941;SDS011;69665;55.822;37.330;2024-02-26T06:29:28;6.50;;;2.70;;
72941;SDS011;69665;55.822;37.330;2024-02-26T06:31:54;7.75;;;2.55;;
72941;SDS011;69665;55.822;37.330;2024-02-26T06:34:20;5.95;;;2.35;;
72941;SDS011;69665;55.822;37.330;2024-02-26T06:36:46;8.80;;;2.90;;
72941;SDS011;69665;55.822;37.330;2024-02-26T06:39:12;5.35;;;2.03;;
72941;SDS011;69665;55.822;37.330;2024-02-26T06:41:38;7.22;;;3.03;;
72941;SDS011;69665;55.822;37.330;2024-02-26T06:44:04;8.35;;;2.85;;
72941;SDS011;69665;55.822;37.330;2024-02-26T06:46:33;6.22;;;2.42;;
72941;SDS011;69665;55.822;37.330;2024-02-26T06:48:59;7.65;;;2.47;;
72941;SDS011;69665;55.822;37.330;2024-02-26T06:51:25;8.18;;;2.90;;
72941;SDS011;69665;55.822;37.330;2024-02-26T06:53:50;7.28;;;2.70;;
72941;SDS011;69665;55.822;37.330;2024-02-26T06:56:16;7.18;;;2.65;;
72941;SDS011;69665;55.822;37.330;2024-02-26T06:58:41;6.95;;;2.67;;
72941;SDS011;69665;55.822;37.330;2024-02-26T07:01:07;7.22;;;2.70;;
72941;SDS011;69665;55.822;37.330;2024-02-26T07:03:33;8.35;;;2.90;;
72941;SDS011;69665;55.822;37.330;2024-02-26T07:06:00;6.78;;;2.47;;
72941;SDS011;69665;55.822;37.330;2024-02-26T07:08:25;6.10;;;2.28;;
72941;SDS011;69665;55.822;37.330;2024-02-26T07:10:51;9.60;;;3.13;;
72941;SDS011;69665;55.822;37.330;2024-02-26T07:13:17;8.63;;;2.97;;
72941;SDS011;69665;55.822;37.330;2024-02-26T07:15:42;6.68;;;2.47;;
72941;SDS011;69665;55.822;37.330;2024-02-26T07:18:08;8.32;;;2.83;;
72941;SDS011;69665;55.822;37.330;2024-02-26T07:20:34;8.68;;;2.50;;
72941;SDS011;69665;55.822;37.330;2024-02-26T07:22:59;5.70;;;2.20;;
72941;SDS011;69665;55.822;37.330;2024-02-26T07:25:25;8.30;;;2.88;;
72941;SDS011;69665;55.822;37.330;2024-02-26T07:27:50;8.57;;;2.92;;
72941;SDS011;69665;55.822;37.330;2024-02-26T07:30:16;8.85;;;3.05;;
72941;SDS011;69665;55.822;37.330;2024-02-26T07:32:42;12.25;;;3.10;;
72941;SDS011;69665;55.822;37.330;2024-02-26T07:35:08;8.52;;;3.33;;
72941;SDS011;69665;55.822;37.330;2024-02-26T07:37:34;9.90;;;3.65;;
72941;SDS011;69665;55.822;37.330;2024-02-26T07:40:00;24.45;;;3.28;;
72941;SDS011;69665;55.822;37.330;2024-02-26T07:42:25;7.97;;;2.90;;
72941;SDS011;69665;55.822;37.330;2024-02-26T07:44:51;8.25;;;2.92;;
72941;SDS011;69665;55.822;37.330;2024-02-26T07:47:18;10.35;;;2.97;;
72941;SDS011;69665;55.822;37.330;2024-02-26T07:49:44;11.00;;;3.53;;
72941;SDS011;69665;55.822;37.330;2024-02-26T07:52:10;8.90;;;2.88;;
72941;SDS011;69665;55.822;37.330;2024-02-26T07:54:35;8.00;;;2.92;;
72941;SDS011;69665;55.822;37.330;2024-02-26T07:57:01;10.60;;;3.55;;
72941;SDS011;69665;55.822;37.330;2024-02-26T07:59:29;5.75;;;2.50;;
72941;SDS011;69665;55.822;37.330;2024-02-26T08:01:54;9.60;;;3.47;;
72941;SDS011;69665;55.822;37.330;2024-02-26T08:04:20;8.93;;;3.33;;
72941;SDS011;69665;55.822;37.330;2024-02-26T08:06:45;10.32;;;3.17;;
72941;SDS011;69665;55.822;37.330;2024-02-26T08:09:11;9.15;;;3.22;;
72941;SDS011;69665;55.822;37.330;2024-02-26T08:11:38;10.80;;;3.25;;
72941;SDS011;69665;55.822;37.330;2024-02-26T08:14:03;6.95;;;2.67;;
72941;SDS011;69665;55.822;37.330;2024-02-26T08:16:29;8.98;;;3.25;;
72941;SDS011;69665;55.822;37.330;2024-02-26T08:18:55;8.05;;;2.83;;
72941;SDS011;69665;55.822;37.330;2024-02-26T08:21:20;10.15;;;3.58;;
72941;SDS011;69665;55.822;37.330;2024-02-26T08:23:46;8.10;;;3.20;;
72941;SDS011;69665;55.822;37.330;2024-02-26T08:26:12;7.82;;;2.60;;
72941;SDS011;69665;55.822;37.330;2024-02-26T08:28:37;8.45;;;3.38;;
72941;SDS011;69665;55.822;37.330;2024-02-26T08:31:03;9.73;;;3.53;;
72941;SDS011;69665;55.822;37.330;2024-02-26T08:33:29;8.18;;;2.95;;
72941;SDS011;69665;55.822;37.330;2024-02-26T08:35:56;9.50;;;3.05;;
72941;SDS011;69665;55.822;37.330;2024-02-26T08:38:21;7.55;;;3.00;;
72941;SDS011;69665;55.822;37.330;2024-02-26T08:40:48;7.75;;;3.13;;
72941;SDS011;69665;55.822;37.330;2024-02-26T08:43:14;8.65;;;3.53;;
72941;SDS011;69665;55.822;37.330;2024-02-26T08:45:39;9.20;;;3.45;;
72941;SDS011;69665;55.822;37.330;2024-02-26T08:48:05;11.93;;;4.00;;
72941;SDS011;69665;55.822;37.330;2024-02-26T08:50:31;9.07;;;3.17;;
72941;SDS011;69665;55.822;37.330;2024-02-26T08:52:56;8.35;;;3.05;;
72941;SDS011;69665;55.822;37.330;2024-02-26T08:55:22;12.73;;;3.58;;
72941;SDS011;69665;55.822;37.330;2024-02-26T08:57:48;7.82;;;3.38;;
72941;SDS011;69665;55.822;37.330;2024-02-26T09:00:13;8.52;;;3.30;;
72941;SDS011;69665;55.822;37.330;2024-02-26T09:02:41;8.27;;;3.28;;
72941;SDS011;69665;55.822;37.330;2024-02-26T09:05:09;8.48;;;3.50;;
72941;SDS011;69665;55.822;37.330;2024-02-26T09:07:35;8.32;;;3.35;;
72941;SDS011;69665;55.822;37.330;2024-02-26T09:10:01;10.25;;;2.97;;
72941;SDS011;69665;55.822;37.330;2024-02-26T09:12:29;12.32;;;4.15;;
72941;SDS011;69665;55.822;37.330;2024-02-26T09:14:54;10.65;;;3.97;;
72941;SDS011;69665;55.822;37.330;2024-02-26T09:17:21;10.60;;;3.63;;
72941;SDS011;69665;55.822;37.330;2024-02-26T09:19:47;9.98;;;3.80;;
72941;SDS011;69665;55.822;37.330;2024-02-26T09:22:12;8.13;;;3.55;;
72941;SDS011;69665;55.822;37.330;2024-02-26T09:24:38;7.63;;;3.38;;
72941;SDS011;69665;55.822;37.330;2024-02-26T09:27:04;9.55;;;3.47;;
72941;SDS011;69665;55.822;37.330;2024-02-26T09:29:29;8.02;;;3.13;;
72941;SDS011;69665;55.822;37.330;2024-02-26T09:31:55;9.32;;;3.60;;
72941;SDS011;69665;55.822;37.330;2024-02-26T09:34:20;10.93;;;3.70;;
72941;SDS011;69665;55.822;37.330;2024-02-26T09:36:46;9.13;;;4.15;;
72941;SDS011;69665;55.822;37.330;2024-02-26T09:39:12;8.60;;;3.17;;
72941;SDS011;69665;55.822;37.330;2024-02-26T09:41:39;12.55;;;3.72;;
72941;SDS011;69665;55.822;37.330;2024-02-26T09:44:08;6.97;;;2.97;;
72941;SDS011;69665;55.822;37.330;2024-02-26T09:46:35;11.40;;;3.63;;
72941;SDS011;69665;55.822;37.330;2024-02-26T09:49:00;8.40;;;3.08;;
72941;SDS011;69665;55.822;37.330;2024-02-26T09:51:26;9.63;;;3.28;;
72941;SDS011;69665;55.822;37.330;2024-02-26T09:53:52;12.20;;;4.20;;
72941;SDS011;69665;55.822;37.330;2024-02-26T09:56:18;9.20;;;3.40;;
72941;SDS011;69665;55.822;37.330;2024-02-26T09:58:44;11.90;;;3.85;;
72941;SDS011;69665;55.822;37.330;2024-02-26T10:01:17;9.20;;;3.47;;
72941;SDS011;69665;55.822;37.330;2024-02-26T10:03:43;8.32;;;3.60;;
72941;SDS011;69665;55.822;37.330;2024-02-26T10:06:13;9.65;;;3.03;;
72941;SDS011;69665;55.822;37.330;2024-02-26T10:08:38;7.38;;;3.00;;
72941;SDS011;69665;55.822;37.330;2024-02-26T10:11:05;9.15;;;3.50;;
72941;SDS011;69665;55.822;37.330;2024-02-26T10:13:36;10.60;;;3.47;;
72941;SDS011;69665;55.822;37.330;2024-02-26T10:16:02;9.48;;;3.70;;
72941;SDS011;69665;55.822;37.330;2024-02-26T10:18:47;11.15;;;3.75;;
72941;SDS011;69665;55.822;37.330;2024-02-26T10:21:15;9.63;;;3.78;;
72941;SDS011;69665;55.822;37.330;2024-02-26T10:23:43;8.18;;;4.05;;
72941;SDS011;69665;55.822;37.330;2024-02-26T10:26:10;9.95;;;3.90;;
72941;SDS011;69665;55.822;37.330;2024-02-26T10:28:41;8.00;;;3.00;;
72941;SDS011;69665;55.822;37.330;2024-02-26T10:31:08;9.60;;;3.40;;
72941;SDS011;69665;55.822;37.330;2024-02-26T10:33:35;8.23;;;3.50;;
72941;SDS011;69665;55.822;37.330;2024-02-26T10:36:04;9.98;;;3.42;;
72941;SDS011;69665;55.822;37.330;2024-02-26T10:38:31;8.95;;;3.47;;
72941;SDS011;69665;55.822;37.330;2024-02-26T10:40:58;13.00;;;3.63;;
72941;SDS011;69665;55.822;37.330;2024-02-26T10:43:26;8.40;;;3.28;;
72941;SDS011;69665;55.822;37.330;2024-02-26T10:45:54;9.25;;;2.97;;
72941;SDS011;69665;55.822;37.330;2024-02-26T10:48:20;6.90;;;3.17;;
72941;SDS011;69665;55.822;37.330;2024-02-26T10:50:46;7.95;;;3.15;;
72941;SDS011;69665;55.822;37.330;2024-02-26T10:53:17;12.18;;;3.60;;
72941;SDS011;69665;55.822;37.330;2024-02-26T10:55:47;8.38;;;3.17;;
72941;SDS011;69665;55.822;37.330;2024-02-26T10:58:17;9.63;;;3.35;;
72941;SDS011;69665;55.822;37.330;2024-02-26T11:00:44;7.65;;;3.20;;
72941;SDS011;69665;55.822;37.330;2024-02-26T11:03:12;11.98;;;3.78;;
72941;SDS011;69665;55.822;37.330;2024-02-26T11:05:42;7.95;;;3.03;;
72941;SDS011;69665;55.822;37.330;2024-02-26T11:08:11;8.93;;;2.65;;
72941;SDS011;69665;55.822;37.330;2024-02-26T11:10:37;9.63;;;3.15;;
72941;SDS011;69665;55.822;37.330;2024-02-26T11:13:03;11.70;;;3.78;;
72941;SDS011;69665;55.822;37.330;2024-02-26T11:15:31;8.02;;;2.97;;
72941;SDS011;69665;55.822;37.330;2024-02-26T11:17:59;10.30;;;3.17;;
72941;SDS011;69665;55.822;37.330;2024-02-26T11:20:26;8.68;;;3.00;;
72941;SDS011;69665;55.822;37.330;2024-02-26T11:22:54;10.25;;;2.95;;
72941;SDS011;69665;55.822;37.330;2024-02-26T11:25:20;7.55;;;2.67;;
72941;SDS011;69665;55.822;37.330;2024-02-26T11:27:50;8.23;;;2.88;;
72941;SDS011;69665;55.822;37.330;2024-02-26T11:30:19;8.02;;;3.25;;
72941;SDS011;69665;55.822;37.330;2024-02-26T11:32:46;7.85;;;2.88;;
72941;SDS011;69665;55.822;37.330;2024-02-26T11:35:13;10.98;;;3.33;;
72941;SDS011;69665;55.822;37.330;2024-02-26T11:37:50;9.65;;;3.00;;
72941;SDS011;69665;55.822;37.330;2024-02-26T11:40:21;6.68;;;2.53;;
72941;SDS011;69665;55.822;37.330;2024-02-26T11:42:49;8.80;;;2.83;;
72941;SDS011;69665;55.822;37.330;2024-02-26T11:48:03;10.65;;;3.17;;
72941;SDS011;69665;55.822;37.330;2024-02-26T11:50:35;6.78;;;3.10;;
72941;SDS011;69665;55.822;37.330;2024-02-26T11:56:34;11.60;;;3.17;;
72941;SDS011;69665;55.822;37.330;2024-02-26T12:04:28;10.50;;;3.05;;
72941;SDS011;69665;55.822;37.330;2024-02-26T12:06:57;11.63;;;3.67;;
72941;SDS011;69665;55.822;37.330;2024-02-26T12:09:32;9.25;;;3.45;;
72941;SDS011;69665;55.822;37.330;2024-02-26T12:12:10;8.65;;;3.40;;
72941;SDS011;69665;55.822;37.330;2024-02-26T12:14:53;10.60;;;3.22;;
72941;SDS011;69665;55.822;37.330;2024-02-26T12:17:24;8.02;;;2.85;;
72941;SDS011;69665;55.822;37.330;2024-02-26T12:19:51;11.10;;;4.22;;
72941;SDS011;69665;55.822;37.330;2024-02-26T12:22:18;9.98;;;3.03;;
72941;SDS011;69665;55.822;37.330;2024-02-26T12:24:44;8.98;;;3.33;;
72941;SDS011;69665;55.822;37.330;2024-02-26T12:27:11;8.93;;;3.40;;
72941;SDS011;69665;55.822;37.330;2024-02-26T12:29:37;10.07;;;4.20;;
72941;SDS011;69665;55.822;37.330;2024-02-26T12:32:03;11.52;;;3.45;;
72941;SDS011;69665;55.822;37.330;2024-02-26T12:34:30;11.00;;;4.07;;
72941;SDS011;69665;55.822;37.330;2024-02-26T12:36:57;11.25;;;4.28;;
72941;SDS011;69665;55.822;37.330;2024-02-26T12:39:23;6.70;;;3.03;;
72941;SDS011;69665;55.822;37.330;2024-02-26T12:41:49;8.90;;;3.28;;
72941;SDS011;69665;55.822;37.330;2024-02-26T12:44:15;7.30;;;3.20;;
72941;SDS011;69665;55.822;37.330;2024-02-26T12:46:41;12.70;;;3.50;;
72941;SDS011;69665;55.822;37.330;2024-02-26T12:49:07;10.00;;;3.85;;
72941;SDS011;69665;55.822;37.330;2024-02-26T12:51:33;10.05;;;3.65;;
72941;SDS011;69665;55.822;37.330;2024-02-26T12:53:59;12.13;;;3.50;;
72941;SDS011;69665;55.822;37.330;2024-02-26T12:56:25;12.57;;;2.45;;
72941;SDS011;69665;55.822;37.330;2024-02-26T12:58:52;10.15;;;3.10;;
72941;SDS011;69665;55.822;37.330;2024-02-26T13:01:21;10.88;;;4.47;;
72941;SDS011;69665;55.822;37.330;2024-02-26T13:03:49;7.18;;;3.10;;
72941;SDS011;69665;55.822;37.330;2024-02-26T13:06:16;11.52;;;3.80;;
72941;SDS011;69665;55.822;37.330;2024-02-26T13:08:43;11.73;;;3.80;;
72941;SDS011;69665;55.822;37.330;2024-02-26T13:11:08;9.35;;;3.30;;
72941;SDS011;69665;55.822;37.330;2024-02-26T13:13:34;10.40;;;4.00;;
72941;SDS011;69665;55.822;37.330;2024-02-26T13:16:01;7.32;;;2.67;;
72941;SDS011;69665;55.822;37.330;2024-02-26T13:18:28;12.00;;;4.20;;
72941;SDS011;69665;55.822;37.330;2024-02-26T13:21:12;12.43;;;4.10;;
72941;SDS011;69665;55.822;37.330;2024-02-26T13:23:40;12.40;;;4.03;;
72941;SDS011;69665;55.822;37.330;2024-02-26T13:26:07;12.45;;;3.63;;
72941;SDS011;69665;55.822;37.330;2024-02-26T13:28:33;14.50;;;3.65;;
72941;SDS011;69665;55.822;37.330;2024-02-26T13:30:59;9.20;;;3.45;;
72941;SDS011;69665;55.822;37.330;2024-02-26T13:33:27;8.50;;;3.08;;
72941;SDS011;69665;55.822;37.330;2024-02-26T13:35:54;10.18;;;3.50;;
72941;SDS011;69665;55.822;37.330;2024-02-26T13:38:21;12.85;;;3.33;;
72941;SDS011;69665;55.822;37.330;2024-02-26T13:40:47;9.75;;;3.40;;
72941;SDS011;69665;55.822;37.330;2024-02-26T13:43:13;7.28;;;3.00;;
72941;SDS011;69665;55.822;37.330;2024-02-26T13:45:39;9.43;;;3.25;;
72941;SDS011;69665;55.822;37.330;2024-02-26T13:48:06;10.65;;;4.10;;
72941;SDS011;69665;55.822;37.330;2024-02-26T13:53:01;14.13;;;4.22;;
72941;SDS011;69665;55.822;37.330;2024-02-26T13:55:27;10.80;;;3.70;;
72941;SDS011;69665;55.822;37.330;2024-02-26T13:57:55;10.95;;;3.88;;
72941;SDS011;69665;55.822;37.330;2024-02-26T14:00:22;6.82;;;2.88;;
72941;SDS011;69665;55.822;37.330;2024-02-26T14:02:48;10.82;;;3.58;;
72941;SDS011;69665;55.822;37.330;2024-02-26T14:05:13;11.20;;;3.67;;
72941;SDS011;69665;55.822;37.330;2024-02-26T14:07:39;8.00;;;3.22;;
72941;SDS011;69665;55.822;37.330;2024-02-26T14:10:05;12.68;;;4.68;;
72941;SDS011;69665;55.822;37.330;2024-02-26T14:12:31;8.13;;;3.22;;
72941;SDS011;69665;55.822;37.330;2024-02-26T14:14:56;7.35;;;3.13;;
72941;SDS011;69665;55.822;37.330;2024-02-26T14:17:26;12.63;;;3.28;;
72941;SDS011;69665;55.822;37.330;2024-02-26T14:19:51;17.30;;;4.57;;
72941;SDS011;69665;55.822;37.330;2024-02-26T14:22:17;12.13;;;3.33;;
72941;SDS011;69665;55.822;37.330;2024-02-26T14:24:43;9.63;;;3.05;;
72941;SDS011;69665;55.822;37.330;2024-02-26T14:27:09;8.82;;;3.00;;
72941;SDS011;69665;55.822;37.330;2024-02-26T14:29:36;13.45;;;3.55;;
72941;SDS011;69665;55.822;37.330;2024-02-26T14:32:03;8.88;;;2.63;;
72941;SDS011;69665;55.822;37.330;2024-02-26T14:34:29;8.10;;;3.00;;
72941;SDS011;69665;55.822;37.330;2024-02-26T14:36:54;8.60;;;2.35;;
72941;SDS011;69665;55.822;37.330;2024-02-26T14:39:21;7.25;;;2.70;;
72941;SDS011;69665;55.822;37.330;2024-02-26T14:41:46;6.65;;;2.40;;
72941;SDS011;69665;55.822;37.330;2024-02-26T14:44:12;4.10;;;1.98;;
72941;SDS011;69665;55.822;37.330;2024-02-26T14:46:38;8.18;;;2.83;;